Time;durP1;ratioP1;P1;durP2;ratioP2;P2;SDS_P1;SDS_P2;PMS_P1;PMS_P2;Temp;Humidity;BMP_temperature;BMP_pressure;BME280_temperature;BME280_humidity;BME280_pressure;Samples;Min_cycle;Max_cycle;Signal;HPM_P1;HPM_P2
2023/09/15 00:00:29;;;;;;;24.80;16.67;;;26.00;99.90;;;;;;5071454;28;20267;-71
2023/09/15 00:02:58;;;;;;;24.63;16.00;;;26.00;99.90;;;;;;5072177;28;20294;-72
2023/09/15 00:05:28;;;;;;;26.63;15.77;;;25.90;99.90;;;;;;5071804;28;20712;-72
2023/09/15 00:07:58;;;;;;;24.57;15.73;;;25.70;98.10;;;;;;5071518;28;20176;-72
2023/09/15 00:10:26;;;;;;;23.87;16.20;;;25.50;99.60;;;;;;5071805;28;20184;-72
2023/09/15 00:12:53;;;;;;;20.77;14.73;;;26.10;95.00;;;;;;5071784;28;20193;-70
2023/09/15 00:15:21;;;;;;;22.77;15.30;;;26.40;94.20;;;;;;5071217;28;20184;-71
2023/09/15 00:17:48;;;;;;;15.73;10.60;;;26.60;94.10;;;;;;5072008;28;20176;-72
2023/09/15 00:20:18;;;;;;;13.80;9.07;;;27.00;85.20;;;;;;5071734;28;20176;-71
2023/09/15 00:22:49;;;;;;;13.43;8.97;;;27.30;79.50;;;;;;5071416;28;20569;-71
2023/09/15 00:25:27;;;;;;;14.43;8.00;;;27.00;72.00;;;;;;5071240;28;20215;-69
2023/09/15 00:27:57;;;;;;;15.43;7.00;;;26.60;73.40;;;;;;5071666;28;20179;-69
2023/09/15 00:30:26;;;;;;;13.80;6.90;;;26.90;70.20;;;;;;5071000;28;20184;-70
2023/09/15 00:32:54;;;;;;;11.73;7.17;;;27.00;68.80;;;;;;5071434;28;20207;-72
2023/09/15 00:35:27;;;;;;;11.77;7.23;;;26.90;62.40;;;;;;5071310;28;20190;-71
2023/09/15 00:37:57;;;;;;;12.67;7.20;;;27.00;62.40;;;;;;5070791;28;20211;-71
2023/09/15 00:40:25;;;;;;;9.13;6.10;;;27.10;60.20;;;;;;5071309;28;20184;-72
2023/09/15 00:42:53;;;;;;;9.70;6.50;;;26.40;57.70;;;;;;5071433;28;20184;-73
2023/09/15 00:45:22;;;;;;;13.23;5.97;;;26.90;60.80;;;;;;5071551;28;20306;-71
2023/09/15 00:47:56;;;;;;;13.30;6.07;;;26.80;59.40;;;;;;5071266;28;20606;-71
2023/09/15 00:50:32;;;;;;;13.20;6.13;;;27.80;56.10;;;;;;5070304;28;20184;-71
2023/09/15 00:53:12;;;;;;;13.93;5.50;;;28.60;50.90;;;;;;5070583;28;20191;-70
2023/09/15 00:55:40;;;;;;;14.60;5.10;;;28.80;49.30;;;;;;5070900;28;20198;-68
2023/09/15 00:58:11;;;;;;;11.40;5.37;;;28.50;48.20;;;;;;5071142;28;20186;-70
2023/09/15 01:00:43;;;;;;;9.63;5.37;;;28.50;47.50;;;;;;5070931;28;20186;-70
2023/09/15 01:03:19;;;;;;;10.23;5.60;;;29.10;45.00;;;;;;5071412;28;20221;-71
2023/09/15 01:05:46;;;;;;;9.30;4.33;;;29.40;43.20;;;;;;5071242;28;20242;-70
2023/09/15 01:08:14;;;;;;;14.80;4.73;;;28.80;36.70;;;;;;5069829;28;20179;-68
2023/09/15 01:10:41;;;;;;;5.57;3.20;;;28.60;35.00;;;;;;5070957;28;20272;-68
2023/09/15 01:13:08;;;;;;;6.73;2.97;;;29.00;29.80;;;;;;5071097;28;20171;-69
2023/09/15 01:16:07;;;;;;;6.20;3.33;;;28.90;23.50;;;;;;5071285;28;20217;-69
2023/09/15 01:18:51;;;;;;;8.77;3.70;;;29.10;24.70;;;;;;5069545;28;20242;-68
2023/09/15 01:21:49;;;;;;;6.40;3.70;;;29.20;22.20;;;;;;5070736;28;20190;-68
2023/09/15 01:24:51;;;;;;;5.57;2.50;;;29.70;23.50;;;;;;5070951;28;20225;-69
2023/09/15 01:27:24;;;;;;;6.43;2.73;;;29.80;13.50;;;;;;5037448;28;20223;-69
2023/09/15 01:29:57;;;;;;;2.97;1.80;;;29.80;15.40;;;;;;5095433;28;20258;-69
2023/09/15 01:32:25;;;;;;;3.35;2.05;;;29.80;12.80;;;;;;5095125;28;20265;-69
2023/09/15 01:34:53;;;;;;;6.13;2.50;;;29.50;10.70;;;;;;5095253;28;20652;-69
2023/09/15 01:37:21;;;;;;;4.30;2.25;;;29.60;9.90;;;;;;5095047;28;20171;-68
2023/09/15 01:39:50;;;;;;;4.93;2.38;;;29.70;9.00;;;;;;5095150;28;20203;-71
2023/09/15 01:42:17;;;;;;;3.22;2.40;;;30.20;8.30;;;;;;5094873;28;20176;-69
2023/09/15 01:44:44;;;;;;;9.20;2.83;;;30.20;10.00;;;;;;5094879;28;20206;-70
2023/09/15 01:47:18;;;;;;;4.17;2.17;;;30.00;7.40;;;;;;5094858;28;20163;-71
2023/09/15 01:53:08;;;;;;;4.53;2.03;;;29.60;3.60;;;;;;5094384;28;20258;-66
2023/09/15 01:55:36;;;;;;;3.33;2.23;;;30.10;3.20;;;;;;5094932;28;20175;-66
2023/09/15 01:58:04;;;;;;;3.63;2.20;;;30.30;4.00;;;;;;5094557;28;20183;-66
2023/09/15 02:00:36;;;;;;;3.70;2.00;;;31.10;2.00;;;;;;5094884;28;20681;-67
2023/09/15 02:03:05;;;;;;;2.10;1.80;;;30.90;1.00;;;;;;5094740;28;20189;-67
2023/09/15 02:05:32;;;;;;;4.78;1.88;;;30.80;1.50;;;;;;5094609;28;21010;-67
2023/09/15 02:07:59;;;;;;;2.55;2.10;;;31.50;1.00;;;;;;5094469;28;20175;-68
2023/09/15 02:10:27;;;;;;;3.00;1.90;;;32.20;1.00;;;;;;5094624;28;20645;-66
2023/09/15 02:12:54;;;;;;;4.15;1.88;;;32.50;1.00;;;;;;5094227;28;20229;-66
2023/09/15 02:15:21;;;;;;;7.03;2.45;;;32.50;1.00;;;;;;5094544;28;20176;-67
2023/09/15 02:17:52;;;;;;;4.70;1.70;;;32.90;1.00;;;;;;5094430;28;20175;-67
2023/09/15 02:20:22;;;;;;;5.45;2.25;;;32.70;1.00;;;;;;5095171;28;20181;-67
2023/09/15 02:22:49;;;;;;;2.97;1.60;;;32.60;1.00;;;;;;5096103;28;20171;-71
2023/09/15 02:25:17;;;;;;;2.63;1.92;;;32.90;1.00;;;;;;5050538;28;20968;-71
2023/09/15 02:27:44;;;;;;;2.33;1.70;;;33.20;1.00;;;;;;5073741;28;20188;-71
2023/09/15 02:30:12;;;;;;;2.50;1.60;;;33.00;1.00;;;;;;5073554;28;20172;-72
2023/09/15 02:32:39;;;;;;;4.00;1.23;;;32.80;1.00;;;;;;5073281;28;20176;-69
2023/09/15 02:35:08;;;;;;;2.90;1.80;;;32.50;1.00;;;;;;5073060;28;20180;-72
2023/09/15 02:37:35;;;;;;;4.03;1.60;;;32.40;1.00;;;;;;5071898;28;20190;-71
2023/09/15 02:40:04;;;;;;;2.33;1.88;;;32.50;1.00;;;;;;5073098;28;20172;-72
2023/09/15 02:42:35;;;;;;;5.80;1.70;;;32.40;1.00;;;;;;5073064;28;20196;-71
2023/09/15 02:45:03;;;;;;;3.88;1.38;;;32.70;1.00;;;;;;5072687;28;20219;-71
2023/09/15 02:47:30;;;;;;;3.78;1.73;;;32.40;1.00;;;;;;5071128;28;20198;-73
2023/09/15 02:49:58;;;;;;;2.63;1.70;;;31.80;1.00;;;;;;5073033;28;20652;-72
2023/09/15 02:52:25;;;;;;;5.28;2.00;;;31.80;1.00;;;;;;5073023;28;20184;-71
2023/09/15 02:54:52;;;;;;;2.83;1.35;;;32.20;1.00;;;;;;5072143;28;20546;-73
2023/09/15 02:57:20;;;;;;;7.88;1.67;;;32.30;1.00;;;;;;5072967;28;20179;-71
2023/09/15 02:59:47;;;;;;;2.50;1.25;;;32.30;1.00;;;;;;5073308;28;20230;-72
2023/09/15 03:02:16;;;;;;;2.45;1.67;;;32.10;1.00;;;;;;5073246;28;20172;-71
2023/09/15 03:04:48;;;;;;;3.30;1.48;;;32.50;1.00;;;;;;5073085;28;20206;-72
2023/09/15 03:07:16;;;;;;;1.70;1.60;;;32.80;1.00;;;;;;5072938;28;20192;-72
2023/09/15 03:09:44;;;;;;;1.70;1.60;;;32.30;1.00;;;;;;5073202;28;20212;-72
2023/09/15 03:12:12;;;;;;;2.90;1.30;;;32.70;1.00;;;;;;5072901;28;20267;-71
2023/09/15 03:14:39;;;;;;;2.85;1.60;;;32.90;1.00;;;;;;5072744;28;20183;-71
2023/09/15 03:17:07;;;;;;;2.88;1.15;;;33.30;1.00;;;;;;5073018;28;20184;-71
2023/09/15 03:19:35;;;;;;;1.95;1.70;;;33.00;1.00;;;;;;5072754;28;20176;-71
2023/09/15 03:22:02;;;;;;;1.92;1.40;;;33.10;1.00;;;;;;5073038;28;20184;-72
2023/09/15 03:24:30;;;;;;;2.55;1.35;;;32.80;1.00;;;;;;5072466;28;20217;-72
2023/09/15 03:26:57;;;;;;;4.07;1.80;;;32.70;1.00;;;;;;5072677;28;20231;-71
2023/09/15 03:29:24;;;;;;;2.83;2.22;;;33.00;1.00;;;;;;5072719;28;20271;-72
2023/09/15 03:31:52;;;;;;;2.63;1.77;;;33.10;1.00;;;;;;5072679;28;20171;-72
2023/09/15 03:34:19;;;;;;;5.63;2.00;;;33.40;1.00;;;;;;5070816;28;20255;-65
2023/09/15 03:36:47;;;;;;;3.22;1.88;;;33.30;1.00;;;;;;5071915;28;20186;-66
2023/09/15 03:39:14;;;;;;;1.83;1.50;;;33.20;1.00;;;;;;5072005;28;20183;-66
2023/09/15 03:41:43;;;;;;;4.07;1.98;;;33.00;1.00;;;;;;5072490;28;20612;-65
2023/09/15 03:44:10;;;;;;;4.93;2.05;;;32.60;1.00;;;;;;5071869;28;20553;-65
2023/09/15 03:46:39;;;;;;;7.22;2.45;;;32.30;1.00;;;;;;5074596;28;20176;-65
2023/09/15 03:49:06;;;;;;;2.90;1.73;;;32.70;1.00;;;;;;5079137;28;20180;-64
2023/09/15 03:51:34;;;;;;;2.83;2.47;;;32.90;1.00;;;;;;5072204;28;20852;-65
2023/09/15 03:54:02;;;;;;;3.88;2.50;;;32.90;1.00;;;;;;5071991;28;20540;-65
2023/09/15 03:56:30;;;;;;;3.30;2.05;;;32.90;1.00;;;;;;5072123;28;20535;-66
2023/09/15 03:58:58;;;;;;;3.95;2.30;;;33.10;1.00;;;;;;5072159;28;20176;-65
2023/09/15 04:01:26;;;;;;;4.25;2.28;;;33.10;1.00;;;;;;5071603;28;20255;-64
2023/09/15 04:03:53;;;;;;;2.40;1.88;;;32.60;1.00;;;;;;5080909;28;20279;-66
2023/09/15 04:06:20;;;;;;;3.45;2.67;;;33.10;1.00;;;;;;5075969;28;20215;-66
2023/09/15 04:08:48;;;;;;;3.80;2.53;;;33.00;1.00;;;;;;5073603;28;20172;-65
2023/09/15 04:11:15;;;;;;;4.38;2.05;;;32.70;1.00;;;;;;5075190;28;20187;-65
2023/09/15 04:13:42;;;;;;;3.58;2.40;;;32.80;1.00;;;;;;5072392;28;20184;-65
2023/09/15 04:16:10;;;;;;;2.35;2.15;;;33.00;1.00;;;;;;5071756;28;20183;-65
2023/09/15 04:18:37;;;;;;;3.83;2.10;;;33.10;1.00;;;;;;5071565;28;20171;-64
2023/09/15 04:21:04;;;;;;;3.15;2.55;;;32.60;1.00;;;;;;5071526;28;20655;-66
2023/09/15 04:23:31;;;;;;;3.28;2.45;;;32.60;1.00;;;;;;5071385;28;20184;-65
2023/09/15 04:25:59;;;;;;;9.68;2.80;;;32.80;1.00;;;;;;5071387;28;20613;-66
2023/09/15 04:28:30;;;;;;;4.60;2.42;;;32.80;1.00;;;;;;5071183;28;20203;-65
2023/09/15 04:30:57;;;;;;;6.70;2.67;;;32.80;1.00;;;;;;5071593;28;20172;-65
2023/09/15 04:33:24;;;;;;;4.30;2.42;;;32.80;1.00;;;;;;5071382;28;20183;-65
2023/09/15 04:35:52;;;;;;;4.75;2.72;;;32.90;1.00;;;;;;5071483;28;20229;-65
2023/09/15 04:38:19;;;;;;;2.55;2.00;;;32.50;1.00;;;;;;5071315;28;20215;-65
2023/09/15 04:40:47;;;;;;;2.67;2.03;;;32.40;1.00;;;;;;5071293;28;20623;-65
2023/09/15 04:43:18;;;;;;;5.57;2.42;;;32.50;1.00;;;;;;5071266;28;20588;-65
2023/09/15 04:45:46;;;;;;;1.95;1.85;;;32.50;1.00;;;;;;5071272;28;20219;-65
2023/09/15 04:48:13;;;;;;;4.13;2.90;;;32.30;1.00;;;;;;5071129;28;20204;-65
2023/09/15 04:50:40;;;;;;;10.18;2.88;;;32.00;1.00;;;;;;5071526;28;20245;-64
2023/09/15 04:53:07;;;;;;;4.80;2.30;;;31.90;1.00;;;;;;5071119;28;20179;-65
2023/09/15 04:55:35;;;;;;;5.72;2.30;;;32.00;1.00;;;;;;5071396;28;20184;-65
2023/09/15 04:58:02;;;;;;;4.07;2.00;;;31.90;1.00;;;;;;5071234;28;20207;-65
2023/09/15 05:00:34;;;;;;;4.70;2.60;;;31.90;1.00;;;;;;5071921;28;20540;-65
2023/09/15 05:03:07;;;;;;;4.38;2.30;;;31.90;1.00;;;;;;5072534;28;20215;-65
2023/09/15 05:05:35;;;;;;;3.53;2.33;;;31.90;1.00;;;;;;5072420;28;20211;-65
2023/09/15 05:08:03;;;;;;;5.85;2.00;;;32.10;1.00;;;;;;5072630;28;20253;-65
2023/09/15 05:10:30;;;;;;;4.77;2.37;;;32.00;1.00;;;;;;5072741;28;20176;-65
2023/09/15 05:12:58;;;;;;;2.47;2.28;;;32.00;1.00;;;;;;5072432;28;20176;-64
2023/09/15 05:15:26;;;;;;;4.70;2.05;;;31.90;1.00;;;;;;5071420;28;20575;-65
2023/09/15 05:17:53;;;;;;;5.30;2.30;;;32.00;1.00;;;;;;5072803;28;20175;-65
2023/09/15 05:20:20;;;;;;;3.88;2.00;;;31.90;1.00;;;;;;5072610;28;20176;-65
2023/09/15 05:22:48;;;;;;;3.20;2.20;;;31.80;1.00;;;;;;5072656;28;20164;-66
2023/09/15 05:25:15;;;;;;;4.97;2.55;;;31.70;1.00;;;;;;5072483;28;20237;-64
2023/09/15 05:27:42;;;;;;;2.42;2.05;;;31.60;1.00;;;;;;5072736;28;20241;-66
2023/09/15 05:30:10;;;;;;;2.20;2.00;;;31.50;1.00;;;;;;5072807;28;20176;-65
2023/09/15 05:32:37;;;;;;;2.67;1.80;;;31.50;1.00;;;;;;5071809;28;20179;-69
2023/09/15 05:35:08;;;;;;;2.83;2.15;;;31.50;1.00;;;;;;5072607;28;20180;-66
2023/09/15 05:37:36;;;;;;;2.97;2.23;;;31.40;1.00;;;;;;5054925;28;20183;-65
2023/09/15 05:40:04;;;;;;;3.00;2.10;;;31.40;1.00;;;;;;5056881;28;20510;-67
2023/09/15 05:42:31;;;;;;;2.55;2.33;;;31.40;1.00;;;;;;5068604;28;20187;-64
2023/09/15 06:04:24;;;;;;;3.63;2.30;;;31.20;1.00;;;;;;4963981;28;20249;-71
2023/09/15 06:06:51;;;;;;;5.53;2.23;;;31.30;1.00;;;;;;4972140;28;20640;-69
2023/09/15 06:09:19;;;;;;;4.85;2.60;;;31.20;1.00;;;;;;4954766;28;20179;-70
2023/09/15 06:11:46;;;;;;;4.20;2.80;;;31.10;1.00;;;;;;4973200;28;20190;-69
2023/09/15 06:14:13;;;;;;;2.60;2.40;;;31.10;1.00;;;;;;4958156;28;20195;-69
2023/09/15 06:16:41;;;;;;;4.37;2.40;;;31.10;1.00;;;;;;4949068;29;20608;-69
2023/09/15 06:19:08;;;;;;;3.10;2.80;;;30.90;1.00;;;;;;4956216;29;20278;-69
2023/09/15 06:21:35;;;;;;;5.20;2.90;;;30.80;1.00;;;;;;4956087;29;20305;-68
2023/09/15 06:24:04;;;;;;;6.47;3.00;;;30.80;1.00;;;;;;4956051;29;20648;-70
2023/09/15 06:26:32;;;;;;;5.23;3.30;;;30.80;1.00;;;;;;4956029;29;20215;-70
2023/09/15 06:29:00;;;;;;;4.93;3.03;;;30.80;1.00;;;;;;4966076;28;20246;-70
2023/09/15 06:31:31;;;;;;;3.93;2.30;;;30.80;1.00;;;;;;4975287;28;20218;-69
2023/09/15 06:33:58;;;;;;;3.03;2.70;;;30.70;1.00;;;;;;4975208;28;20179;-69
2023/09/15 06:36:26;;;;;;;3.90;2.83;;;30.70;1.00;;;;;;4975254;28;20269;-69
2023/09/15 06:38:53;;;;;;;6.20;2.97;;;30.60;1.00;;;;;;4975144;28;20211;-69
2023/09/15 06:41:24;;;;;;;4.40;2.70;;;30.40;1.00;;;;;;4974961;28;20214;-71
2023/09/15 06:43:51;;;;;;;4.33;2.90;;;30.40;1.00;;;;;;4963469;28;20183;-70
2023/09/15 06:46:21;;;;;;;3.73;2.80;;;30.40;1.00;;;;;;4974887;28;20219;-69
2023/09/15 06:48:49;;;;;;;5.17;2.90;;;30.60;1.00;;;;;;4974909;28;20186;-69
2023/09/15 06:51:17;;;;;;;4.13;2.50;;;30.50;1.00;;;;;;4974506;28;20254;-69
2023/09/15 06:53:45;;;;;;;3.23;2.80;;;30.50;1.00;;;;;;4974704;28;20369;-69
2023/09/15 06:56:12;;;;;;;3.57;3.23;;;30.40;1.00;;;;;;4974995;28;20625;-70
2023/09/15 06:58:39;;;;;;;2.97;2.42;;;30.30;1.00;;;;;;4974842;28;20183;-70
2023/09/15 07:01:07;;;;;;;3.63;2.70;;;30.30;1.00;;;;;;4974646;28;20183;-69
2023/09/15 07:03:34;;;;;;;5.13;3.20;;;30.00;1.00;;;;;;4974001;28;20269;-69
2023/09/15 07:06:02;;;;;;;5.73;3.07;;;29.60;1.00;;;;;;4974596;28;20306;-70
2023/09/15 07:08:30;;;;;;;5.53;2.70;;;29.40;1.00;;;;;;4974678;28;20183;-69
2023/09/15 07:10:57;;;;;;;3.63;2.73;;;29.30;1.00;;;;;;4974286;28;20263;-69
2023/09/15 07:13:24;;;;;;;3.70;2.63;;;29.10;1.00;;;;;;4974481;28;20206;-69
2023/09/15 07:15:52;;;;;;;7.63;2.83;;;28.70;1.00;;;;;;4974508;28;20269;-69
2023/09/15 07:18:19;;;;;;;7.07;4.03;;;28.30;2.90;;;;;;4974468;28;20194;-69
2023/09/15 07:20:49;;;;;;;9.93;4.17;;;28.10;11.90;;;;;;4974536;28;20186;-70
2023/09/15 07:23:17;;;;;;;10.00;4.63;;;28.00;16.80;;;;;;4974477;28;20641;-69
2023/09/15 07:25:45;;;;;;;10.50;4.70;;;27.80;21.80;;;;;;4975649;28;20639;-70
2023/09/15 07:28:13;;;;;;;12.93;4.40;;;27.70;25.30;;;;;;4958860;28;20683;-70
2023/09/15 07:30:41;;;;;;;8.00;4.70;;;27.40;28.80;;;;;;4958091;28;20186;-69
2023/09/15 07:33:09;;;;;;;14.40;4.80;;;27.30;32.20;;;;;;4975718;28;20190;-69
2023/09/15 07:35:37;;;;;;;13.93;4.77;;;27.10;35.80;;;;;;4975509;28;20179;-69
2023/09/15 07:38:05;;;;;;;9.83;5.10;;;26.80;41.30;;;;;;4975616;28;20321;-69
2023/09/15 07:40:32;;;;;;;11.73;5.13;;;26.50;43.60;;;;;;4975762;28;20199;-70
2023/09/15 07:43:00;;;;;;;6.20;4.43;;;26.30;48.30;;;;;;4975252;28;20184;-70
2023/09/15 07:45:27;;;;;;;9.10;4.70;;;26.10;51.80;;;;;;4956026;29;20717;-69
2023/09/15 07:47:55;;;;;;;9.43;5.03;;;25.90;54.50;;;;;;4966868;28;20179;-70
2023/09/15 07:50:23;;;;;;;7.23;4.77;;;25.70;58.40;;;;;;4975035;28;20266;-71
2023/09/15 07:52:50;;;;;;;9.63;4.43;;;25.50;63.80;;;;;;4959490;28;20882;-69
2023/09/15 07:55:18;;;;;;;6.27;4.70;;;25.40;67.30;;;;;;4968814;28;20191;-70
2023/09/15 07:57:45;;;;;;;9.40;4.50;;;25.30;74.90;;;;;;4973538;28;20175;-70
2023/09/15 08:00:12;;;;;;;6.83;4.87;;;25.00;80.30;;;;;;4973743;28;20176;-70
2023/09/15 08:02:40;;;;;;;8.43;4.83;;;24.80;83.70;;;;;;4973174;28;20182;-70
2023/09/15 08:05:08;;;;;;;10.80;5.90;;;24.70;87.50;;;;;;4973618;28;20223;-69
2023/09/15 08:07:36;;;;;;;8.30;4.80;;;24.70;88.60;;;;;;4956315;28;20236;-69
2023/09/15 08:10:04;;;;;;;7.63;4.77;;;24.90;87.60;;;;;;4973485;28;20234;-69
2023/09/15 08:12:31;;;;;;;10.00;5.17;;;24.80;88.20;;;;;;4973454;28;20250;-69
2023/09/15 08:14:59;;;;;;;11.47;5.33;;;24.50;90.30;;;;;;4955897;28;20191;-69
2023/09/15 08:17:26;;;;;;;8.23;4.73;;;24.40;95.10;;;;;;4973486;28;20180;-69
2023/09/15 08:19:55;;;;;;;6.53;4.43;;;24.20;96.70;;;;;;4973242;28;20209;-68
2023/09/15 08:22:23;;;;;;;7.40;4.67;;;24.30;97.70;;;;;;4973314;28;20179;-69
2023/09/15 08:24:51;;;;;;;12.00;6.57;;;24.30;97.20;;;;;;4973245;28;20237;-70
2023/09/15 08:27:20;;;;;;;16.93;5.00;;;24.20;98.50;;;;;;4973259;28;20187;-70
2023/09/15 08:29:47;;;;;;;11.30;5.30;;;24.10;99.50;;;;;;4973351;28;20651;-69
2023/09/15 08:32:17;;;;;;;8.13;5.13;;;23.90;99.90;;;;;;4973198;28;20633;-69
2023/09/15 08:34:44;;;;;;;9.70;5.80;;;23.70;99.90;;;;;;4973137;28;20648;-70
2023/09/15 08:37:15;;;;;;;10.63;5.50;;;23.50;99.90;;;;;;4973236;28;20225;-68
2023/09/15 08:39:42;;;;;;;10.27;5.00;;;23.40;99.90;;;;;;4973166;28;20179;-69
2023/09/15 08:42:28;;;;;;;15.67;6.33;;;23.20;99.90;;;;;;4972792;28;20190;-70
2023/09/15 08:44:57;;;;;;;10.43;5.70;;;23.00;99.90;;;;;;4955694;28;20305;-69
2023/09/15 08:47:27;;;;;;;7.77;5.37;;;22.90;99.90;;;;;;4972896;28;20202;-69
2023/09/15 08:49:55;;;;;;;9.30;5.20;;;22.70;99.90;;;;;;4972795;28;20186;-69
2023/09/15 08:52:22;;;;;;;8.43;5.30;;;22.60;99.90;;;;;;4955404;28;20202;-69
2023/09/15 08:54:53;;;;;;;9.60;5.37;;;22.40;99.90;;;;;;4971404;28;20267;-69
2023/09/15 08:57:22;;;;;;;8.90;5.17;;;22.20;99.90;;;;;;4971233;28;20656;-71
2023/09/15 08:59:50;;;;;;;11.50;5.97;;;22.00;99.90;;;;;;4972362;28;20660;-69
2023/09/15 09:02:18;;;;;;;12.23;5.03;;;21.90;99.90;;;;;;4972846;28;20203;-68
2023/09/15 09:04:45;;;;;;;14.30;5.47;;;21.70;99.90;;;;;;4971619;28;20684;-69
2023/09/15 09:07:13;;;;;;;11.40;4.60;;;21.60;99.90;;;;;;4973709;28;20226;-70
2023/09/15 09:09:41;;;;;;;9.00;5.40;;;21.50;99.90;;;;;;4955752;28;20566;-70
2023/09/15 09:12:09;;;;;;;11.87;6.17;;;21.30;99.90;;;;;;4956143;28;20639;-70
2023/09/15 09:14:38;;;;;;;9.37;5.43;;;21.20;99.90;;;;;;4973513;28;20179;-69
2023/09/15 09:17:08;;;;;;;11.97;5.83;;;21.10;99.90;;;;;;4973414;28;20253;-69
2023/09/15 09:19:42;;;;;;;10.10;5.23;;;21.10;99.90;;;;;;4973673;28;20187;-70
2023/09/15 09:22:11;;;;;;;16.77;5.80;;;20.90;99.90;;;;;;4973418;28;20671;-70
2023/09/15 09:24:39;;;;;;;9.87;5.40;;;20.80;99.90;;;;;;4960667;28;20202;-68
2023/09/15 09:27:12;;;;;;;11.43;6.13;;;20.70;99.90;;;;;;4966478;28;20541;-68
2023/09/15 09:29:40;;;;;;;9.97;5.83;;;20.70;99.90;;;;;;4971936;28;20683;-69
2023/09/15 09:32:14;;;;;;;11.97;6.13;;;20.60;99.90;;;;;;4954365;28;20199;-69
2023/09/15 09:34:42;;;;;;;10.00;5.53;;;20.50;99.90;;;;;;4970654;28;20190;-69
2023/09/15 09:37:10;;;;;;;8.27;5.30;;;20.50;99.90;;;;;;4972236;28;20636;-67
2023/09/15 09:39:38;;;;;;;8.40;5.40;;;20.50;99.90;;;;;;4971780;28;20175;-68
2023/09/15 09:42:06;;;;;;;17.50;5.53;;;20.40;99.90;;;;;;4971819;28;20218;-70
2023/09/15 09:44:37;;;;;;;14.33;7.00;;;20.40;99.90;;;;;;4971935;28;20203;-69
2023/09/15 09:47:10;;;;;;;10.33;6.27;;;20.30;99.90;;;;;;4974471;28;20266;-68
2023/09/15 09:49:39;;;;;;;10.70;6.23;;;20.20;99.90;;;;;;4957706;28;20221;-69
2023/09/15 09:52:07;;;;;;;8.27;5.80;;;20.10;99.90;;;;;;4975683;28;20183;-68
2023/09/15 09:54:35;;;;;;;8.87;6.03;;;20.00;99.90;;;;;;4975489;28;20176;-68
2023/09/15 09:57:04;;;;;;;10.63;5.70;;;19.90;99.90;;;;;;4975256;28;20257;-69
2023/09/15 09:59:35;;;;;;;10.77;6.30;;;19.80;99.90;;;;;;4957566;28;20187;-69
2023/09/15 10:02:04;;;;;;;15.43;8.13;;;19.70;99.90;;;;;;4975535;28;20197;-68
2023/09/15 10:04:32;;;;;;;18.57;8.73;;;19.70;99.90;;;;;;4975114;28;20310;-69
2023/09/15 10:07:00;;;;;;;13.50;7.00;;;19.60;99.90;;;;;;4974632;28;20195;-70
2023/09/15 10:09:30;;;;;;;15.43;7.90;;;19.50;99.90;;;;;;4974830;28;20241;-70
2023/09/15 10:12:01;;;;;;;18.53;8.43;;;19.40;99.90;;;;;;4975118;28;20198;-69
2023/09/15 10:14:31;;;;;;;17.93;7.67;;;19.30;99.90;;;;;;4942495;28;20194;-70
2023/09/15 10:17:01;;;;;;;13.50;7.00;;;19.30;99.90;;;;;;4975074;28;20181;-69
2023/09/15 10:19:30;;;;;;;14.87;8.30;;;19.20;99.90;;;;;;4975084;28;20192;-70
2023/09/15 10:21:58;;;;;;;17.50;7.40;;;19.30;99.90;;;;;;4975357;28;20600;-70
2023/09/15 10:24:27;;;;;;;11.27;6.93;;;19.20;99.90;;;;;;4975126;28;20647;-70
2023/09/15 10:26:56;;;;;;;12.77;6.73;;;19.20;99.90;;;;;;4975413;28;20268;-69
2023/09/15 10:29:31;;;;;;;13.93;7.40;;;19.20;99.90;;;;;;4941646;28;20189;-68
2023/09/15 10:32:08;;;;;;;12.97;7.80;;;19.30;99.90;;;;;;4940101;28;20231;-69
2023/09/15 10:34:37;;;;;;;13.13;8.40;;;19.30;99.90;;;;;;4941751;28;20197;-70
2023/09/15 10:37:06;;;;;;;12.17;9.00;;;19.30;99.90;;;;;;4973595;28;20707;-71
2023/09/15 10:39:42;;;;;;;16.87;9.67;;;19.20;99.90;;;;;;4975127;28;20179;-70
2023/09/15 10:42:16;;;;;;;13.97;8.73;;;19.10;99.90;;;;;;4974911;28;20179;-70
2023/09/15 10:44:44;;;;;;;14.27;9.57;;;18.90;99.90;;;;;;4974699;28;20182;-69
2023/09/15 10:47:18;;;;;;;17.43;8.67;;;18.90;99.90;;;;;;4974782;28;20201;-70
2023/09/15 10:49:56;;;;;;;14.83;8.43;;;18.80;99.90;;;;;;4956225;28;20189;-71
2023/09/15 10:52:38;;;;;;;15.70;8.47;;;18.70;99.90;;;;;;4957165;28;20659;-69
2023/09/15 10:55:06;;;;;;;15.57;9.37;;;18.70;99.90;;;;;;4957519;28;20195;-69
2023/09/15 10:57:36;;;;;;;13.60;8.57;;;18.70;99.90;;;;;;4972443;28;20187;-69
2023/09/15 11:00:08;;;;;;;10.77;7.57;;;18.60;99.90;;;;;;4974454;28;20195;-69
2023/09/15 11:02:38;;;;;;;17.07;8.27;;;18.50;99.90;;;;;;4973950;28;20550;-68
2023/09/15 11:05:07;;;;;;;16.63;8.03;;;18.40;99.90;;;;;;4974328;28;20230;-70
2023/09/15 11:07:37;;;;;;;16.83;9.03;;;18.40;99.90;;;;;;4973672;28;20231;-70
2023/09/15 11:10:07;;;;;;;16.77;8.83;;;18.20;99.90;;;;;;4973237;28;20262;-70
2023/09/15 11:12:40;;;;;;;15.10;8.77;;;18.10;99.90;;;;;;4974088;28;20592;-70
2023/09/15 11:15:10;;;;;;;17.20;8.40;;;18.00;99.90;;;;;;4974432;28;20560;-71
2023/09/15 11:17:38;;;;;;;15.90;8.83;;;17.90;99.90;;;;;;4974482;28;20183;-71
2023/09/15 11:20:07;;;;;;;12.70;8.57;;;18.00;99.90;;;;;;4972931;28;20195;-70
2023/09/15 11:22:38;;;;;;;14.13;8.53;;;18.00;99.90;;;;;;4973355;28;20230;-70
2023/09/15 11:25:07;;;;;;;13.70;8.47;;;18.00;99.90;;;;;;4974430;28;20214;-69
2023/09/15 11:27:36;;;;;;;15.33;8.43;;;17.90;99.90;;;;;;4951639;28;20884;-69
2023/09/15 11:30:08;;;;;;;16.23;8.43;;;17.80;99.90;;;;;;4971500;28;20264;-70
2023/09/15 11:32:38;;;;;;;16.70;9.10;;;17.70;99.90;;;;;;4974112;28;20194;-70
2023/09/15 11:35:12;;;;;;;18.50;8.73;;;17.60;99.90;;;;;;4973164;28;20191;-69
2023/09/15 11:37:41;;;;;;;14.17;8.33;;;17.50;99.90;;;;;;4956555;28;20633;-71
2023/09/15 11:40:19;;;;;;;15.73;9.10;;;17.50;99.90;;;;;;4974099;28;20227;-70
2023/09/15 11:43:00;;;;;;;18.50;9.67;;;17.40;99.90;;;;;;4973598;28;20181;-69
2023/09/15 11:45:30;;;;;;;14.37;8.93;;;17.30;99.90;;;;;;4973298;28;20207;-69
2023/09/15 11:47:59;;;;;;;16.13;8.90;;;17.20;99.90;;;;;;4957047;28;20667;-69
2023/09/15 11:50:28;;;;;;;18.60;8.57;;;17.10;99.90;;;;;;4975037;28;20195;-68
2023/09/15 11:52:57;;;;;;;14.13;8.80;;;17.10;99.90;;;;;;4957587;28;20686;-70
2023/09/15 11:55:26;;;;;;;15.33;9.10;;;17.10;99.90;;;;;;4975145;28;20679;-70
2023/09/15 11:57:55;;;;;;;13.70;8.27;;;17.00;99.90;;;;;;4975004;28;20212;-71
2023/09/15 12:00:31;;;;;;;14.00;8.10;;;17.00;99.90;;;;;;4960236;28;21078;-70
2023/09/15 12:03:03;;;;;;;18.37;9.10;;;17.00;99.90;;;;;;4969487;28;20239;-70
2023/09/15 12:05:32;;;;;;;12.83;8.80;;;16.90;99.90;;;;;;4971719;28;20302;-69
2023/09/15 12:08:03;;;;;;;18.43;9.27;;;16.80;99.90;;;;;;4954630;28;20191;-68
2023/09/15 12:10:31;;;;;;;15.47;9.00;;;16.80;99.90;;;;;;4972622;28;20172;-69
2023/09/15 12:13:03;;;;;;;13.17;8.53;;;16.70;99.90;;;;;;4973231;28;20187;-70
2023/09/15 12:15:33;;;;;;;21.77;10.57;;;16.70;99.90;;;;;;4973434;28;20645;-67
2023/09/15 12:18:05;;;;;;;20.13;9.90;;;16.70;99.90;;;;;;4967580;28;20236;-70
2023/09/15 12:20:40;;;;;;;16.23;8.90;;;16.60;99.90;;;;;;4986446;28;20191;-70
2023/09/15 12:23:15;;;;;;;19.60;9.90;;;16.50;99.90;;;;;;4973041;28;20264;-70
2023/09/15 12:25:45;;;;;;;18.63;9.30;;;16.40;99.90;;;;;;4970013;28;20226;-69
2023/09/15 12:28:15;;;;;;;18.60;9.53;;;16.30;99.90;;;;;;4959223;28;20602;-69
2023/09/15 12:30:45;;;;;;;22.13;10.40;;;16.40;99.90;;;;;;4958690;28;20677;-69
2023/09/15 12:33:17;;;;;;;17.03;9.77;;;16.40;99.90;;;;;;4972770;28;20167;-70
2023/09/15 12:35:48;;;;;;;17.70;9.70;;;16.50;99.90;;;;;;4973065;28;20186;-69
2023/09/15 12:38:20;;;;;;;14.93;9.17;;;16.40;99.90;;;;;;4973053;28;20577;-69
2023/09/15 12:40:50;;;;;;;21.20;10.00;;;16.30;99.90;;;;;;4954947;28;20190;-69
2023/09/15 12:43:19;;;;;;;17.40;10.00;;;16.30;99.90;;;;;;4972825;28;20226;-69
2023/09/15 12:45:48;;;;;;;16.43;9.70;;;16.20;99.90;;;;;;4972792;28;20304;-70
2023/09/15 12:48:16;;;;;;;16.00;9.97;;;16.20;99.90;;;;;;4955412;28;20191;-70
2023/09/15 12:50:45;;;;;;;16.00;10.07;;;16.20;99.90;;;;;;4972175;28;20191;-70
2023/09/15 12:53:13;;;;;;;18.47;10.77;;;16.10;99.90;;;;;;4972787;28;20183;-70
2023/09/15 12:55:41;;;;;;;20.27;9.83;;;16.00;99.90;;;;;;4972544;28;20191;-70
2023/09/15 12:58:09;;;;;;;14.53;10.00;;;16.00;99.90;;;;;;4973833;28;20179;-70
2023/09/15 13:00:40;;;;;;;13.43;9.53;;;15.90;99.90;;;;;;4973500;28;20187;-71
2023/09/15 13:03:08;;;;;;;14.27;10.20;;;15.90;99.90;;;;;;4955205;28;20227;-69
2023/09/15 13:05:36;;;;;;;19.80;10.70;;;15.90;99.90;;;;;;4973523;28;20211;-70
2023/09/15 13:08:04;;;;;;;21.60;10.67;;;15.90;99.90;;;;;;4973846;28;20186;-70
2023/09/15 13:10:35;;;;;;;14.33;10.40;;;15.80;99.90;;;;;;4973302;28;20553;-69
2023/09/15 13:13:03;;;;;;;15.70;11.47;;;15.80;99.90;;;;;;4973707;28;20194;-70
2023/09/15 13:15:31;;;;;;;15.20;9.90;;;15.70;99.90;;;;;;4945703;28;20194;-69
2023/09/15 13:17:59;;;;;;;18.77;10.40;;;15.70;99.90;;;;;;4973841;28;20270;-69